Lafontaine, Kansas
Current Conditions -  °F | °C
As of 4:52 PM on Tuesday 27 Jan 2015 (Local Time) from KCNU Reporting Station
Clear Clear  
Wind Chill: 61°   Ceiling: Unl
Heat Index: 61°   Visibility: 10mi
Dew Point: 35°   Wind: 9mph
Humidity: 38%   Direction: 150°SSE
Pressure: 30.07"   Gusts: NA
Location:  37.5252°N, 95.8316°W
Report Text: KCNU 272252Z AUTO 15008KT 10SM CLR 16/02 A3007 RMK AO2 SLP184 T01610017
Loading
Personal Weather Stations






























Interactive Weather Map New forecast layout! Learn more

10-Day Weather Forecast

Advertisements
Track Severe Weather on mobile